sensor_id;sensor_type;location;lat;lon;timestamp;pressure;altitude;pressure_sealevel;temperature;humidity
38616;BME280;24370;51.986;4.666;2023-04-01T00:00:51;99152.84;;;14.75;84.01
38616;BME280;24370;51.986;4.666;2023-04-01T00:03:20;99150.81;;;15.44;79.26
38616;BME280;24370;51.986;4.666;2023-04-01T00:05:46;99146.00;;;15.83;78.67
38616;BME280;24370;51.986;4.666;2023-04-01T00:08:12;99151.31;;;15.19;80.38
38616;BME280;24370;51.986;4.666;2023-04-01T00:10:37;99160.56;;;14.79;83.65
38616;BME280;24370;51.986;4.666;2023-04-01T00:13:04;99166.88;;;14.92;83.80
38616;BME280;24370;51.986;4.666;2023-04-01T00:15:30;99147.13;;;16.67;73.97
38616;BME280;24370;51.986;4.666;2023-04-01T00:17:55;99147.88;;;16.69;74.31
38616;BME280;24370;51.986;4.666;2023-04-01T00:20:21;99151.72;;;16.35;72.19
38616;BME280;24370;51.986;4.666;2023-04-01T00:22:47;99155.50;;;15.86;75.41
38616;BME280;24370;51.986;4.666;2023-04-01T00:25:13;99158.88;;;15.88;75.19
38616;BME280;24370;51.986;4.666;2023-04-01T00:27:39;99162.34;;;16.33;71.20
38616;BME280;24370;51.986;4.666;2023-04-01T00:30:05;99157.63;;;15.63;75.75
38616;BME280;24370;51.986;4.666;2023-04-01T00:32:31;99161.22;;;15.62;77.59
38616;BME280;24370;51.986;4.666;2023-04-01T00:34:57;99174.13;;;15.51;79.00
38616;BME280;24370;51.986;4.666;2023-04-01T00:37:25;99170.22;;;16.04;74.83
38616;BME280;24370;51.986;4.666;2023-04-01T00:39:50;99177.91;;;15.77;74.29
38616;BME280;24370;51.986;4.666;2023-04-01T00:42:16;99186.72;;;15.14;80.61
38616;BME280;24370;51.986;4.666;2023-04-01T00:44:42;99186.63;;;15.15;83.33
38616;BME280;24370;51.986;4.666;2023-04-01T00:47:08;99184.72;;;15.81;78.59
38616;BME280;24370;51.986;4.666;2023-04-01T00:49:38;99175.78;;;15.37;79.60
38616;BME280;24370;51.986;4.666;2023-04-01T00:52:07;99188.38;;;16.39;73.55
38616;BME280;24370;51.986;4.666;2023-04-01T00:54:34;99175.72;;;15.85;74.71
38616;BME280;24370;51.986;4.666;2023-04-01T00:57:08;99182.50;;;16.34;70.79
38616;BME280;24370;51.986;4.666;2023-04-01T00:59:46;99196.66;;;15.40;76.67
38616;BME280;24370;51.986;4.666;2023-04-01T01:02:15;99197.19;;;15.31;80.30
38616;BME280;24370;51.986;4.666;2023-04-01T01:04:41;99193.81;;;15.75;78.04
38616;BME280;24370;51.986;4.666;2023-04-01T01:10:09;99200.84;;;14.63;84.55
38616;BME280;24370;51.986;4.666;2023-04-01T01:12:53;99191.81;;;15.49;81.92
38616;BME280;24370;51.986;4.666;2023-04-01T01:15:22;99204.91;;;15.34;77.89
38616;BME280;24370;51.986;4.666;2023-04-01T01:26:02;99209.22;;;15.35;78.65
38616;BME280;24370;51.986;4.666;2023-04-01T01:31:44;99211.28;;;15.14;83.09
38616;BME280;24370;51.986;4.666;2023-04-01T01:34:36;99207.03;;;15.59;79.48
38616;BME280;24370;51.986;4.666;2023-04-01T01:37:12;99202.56;;;15.92;78.76
38616;BME280;24370;51.986;4.666;2023-04-01T01:39:40;99203.91;;;15.99;75.54
38616;BME280;24370;51.986;4.666;2023-04-01T01:42:09;99206.03;;;16.23;73.19
38616;BME280;24370;51.986;4.666;2023-04-01T01:44:37;99219.59;;;15.06;80.90
38616;BME280;24370;51.986;4.666;2023-04-01T01:47:07;99221.78;;;14.98;79.51
38616;BME280;24370;51.986;4.666;2023-04-01T01:49:33;99221.97;;;15.59;79.16
38616;BME280;24370;51.986;4.666;2023-04-01T01:52:00;99219.41;;;15.09;78.50
38616;BME280;24370;51.986;4.666;2023-04-01T01:54:26;99220.66;;;15.98;74.91
38616;BME280;24370;51.986;4.666;2023-04-01T01:56:57;99217.13;;;16.14;74.84
38616;BME280;24370;51.986;4.666;2023-04-01T01:59:26;99241.88;;;14.66;81.65
38616;BME280;24370;51.986;4.666;2023-04-01T02:01:54;99228.28;;;16.03;74.32
38616;BME280;24370;51.986;4.666;2023-04-01T02:04:21;99228.75;;;15.31;77.43
38616;BME280;24370;51.986;4.666;2023-04-01T02:06:56;99230.13;;;15.54;76.87
38616;BME280;24370;51.986;4.666;2023-04-01T02:09:23;99239.09;;;15.02;79.27
38616;BME280;24370;51.986;4.666;2023-04-01T02:11:56;99243.03;;;15.27;77.38
38616;BME280;24370;51.986;4.666;2023-04-01T02:14:28;99243.28;;;15.70;75.01
38616;BME280;24370;51.986;4.666;2023-04-01T02:17:05;99252.38;;;15.81;75.19
38616;BME280;24370;51.986;4.666;2023-04-01T02:19:38;99259.84;;;15.40;75.23
38616;BME280;24370;51.986;4.666;2023-04-01T02:22:08;99262.03;;;15.16;76.89
38616;BME280;24370;51.986;4.666;2023-04-01T02:24:37;99252.03;;;16.48;73.40
38616;BME280;24370;51.986;4.666;2023-04-01T02:27:05;99261.28;;;15.94;73.13
38616;BME280;24370;51.986;4.666;2023-04-01T02:29:30;99261.38;;;15.76;74.16
38616;BME280;24370;51.986;4.666;2023-04-01T02:31:56;99270.53;;;16.01;73.01
38616;BME280;24370;51.986;4.666;2023-04-01T02:34:22;99270.38;;;15.72;76.20
38616;BME280;24370;51.986;4.666;2023-04-01T02:36:49;99274.44;;;15.30;79.69
38616;BME280;24370;51.986;4.666;2023-04-01T02:39:15;99274.19;;;15.19;78.70
38616;BME280;24370;51.986;4.666;2023-04-01T02:41:42;99273.59;;;15.77;78.25
38616;BME280;24370;51.986;4.666;2023-04-01T02:44:09;99271.66;;;15.33;75.32
38616;BME280;24370;51.986;4.666;2023-04-01T02:46:35;99266.16;;;16.47;72.49
38616;BME280;24370;51.986;4.666;2023-04-01T02:49:01;99285.00;;;15.62;76.98
38616;BME280;24370;51.986;4.666;2023-04-01T02:51:26;99274.41;;;14.98;80.89
38616;BME280;24370;51.986;4.666;2023-04-01T02:53:51;99285.84;;;15.47;77.43
38616;BME280;24370;51.986;4.666;2023-04-01T02:56:17;99281.25;;;15.98;75.39
38616;BME280;24370;51.986;4.666;2023-04-01T02:58:43;99289.75;;;15.55;77.00
38616;BME280;24370;51.986;4.666;2023-04-01T03:01:08;99285.53;;;16.31;73.43
38616;BME280;24370;51.986;4.666;2023-04-01T03:03:34;99286.91;;;16.53;72.41
38616;BME280;24370;51.986;4.666;2023-04-01T03:06:05;99290.81;;;16.45;72.81
38616;BME280;24370;51.986;4.666;2023-04-01T03:08:31;99295.88;;;16.04;73.75
38616;BME280;24370;51.986;4.666;2023-04-01T03:10:56;99311.34;;;15.62;73.74
38616;BME280;24370;51.986;4.666;2023-04-01T03:13:22;99298.44;;;16.81;68.82
38616;BME280;24370;51.986;4.666;2023-04-01T03:15:47;99317.66;;;16.07;71.88
38616;BME280;24370;51.986;4.666;2023-04-01T03:18:12;99311.25;;;16.72;70.22
38616;BME280;24370;51.986;4.666;2023-04-01T03:20:38;99319.75;;;16.47;69.77
38616;BME280;24370;51.986;4.666;2023-04-01T03:23:03;99328.19;;;16.07;73.72
38616;BME280;24370;51.986;4.666;2023-04-01T03:25:28;99325.25;;;16.28;72.85
38616;BME280;24370;51.986;4.666;2023-04-01T03:27:55;99327.09;;;16.87;69.62
38616;BME280;24370;51.986;4.666;2023-04-01T03:30:21;99327.50;;;16.95;69.81
38616;BME280;24370;51.986;4.666;2023-04-01T03:32:46;99350.78;;;16.11;74.76
38616;BME280;24370;51.986;4.666;2023-04-01T03:35:12;99350.28;;;15.89;74.63
38616;BME280;24370;51.986;4.666;2023-04-01T03:37:37;99340.53;;;17.12;69.03
38616;BME280;24370;51.986;4.666;2023-04-01T03:40:04;99358.44;;;16.16;71.19
38616;BME280;24370;51.986;4.666;2023-04-01T03:42:30;99365.41;;;16.01;75.57
38616;BME280;24370;51.986;4.666;2023-04-01T03:44:57;99355.50;;;16.37;71.45
38616;BME280;24370;51.986;4.666;2023-04-01T03:47:22;99358.28;;;16.50;71.78
38616;BME280;24370;51.986;4.666;2023-04-01T03:49:48;99369.84;;;16.01;75.57
38616;BME280;24370;51.986;4.666;2023-04-01T03:52:13;99376.97;;;16.15;73.45
38616;BME280;24370;51.986;4.666;2023-04-01T03:54:38;99369.97;;;17.35;67.82
38616;BME280;24370;51.986;4.666;2023-04-01T03:57:04;99372.66;;;17.05;70.64
38616;BME280;24370;51.986;4.666;2023-04-01T03:59:30;99376.63;;;16.98;68.82
38616;BME280;24370;51.986;4.666;2023-04-01T04:01:56;99375.81;;;17.26;66.37
38616;BME280;24370;51.986;4.666;2023-04-01T04:04:21;99382.66;;;17.86;65.20
38616;BME280;24370;51.986;4.666;2023-04-01T04:06:47;99392.28;;;17.87;65.39
38616;BME280;24370;51.986;4.666;2023-04-01T04:09:13;99394.19;;;17.85;65.52
38616;BME280;24370;51.986;4.666;2023-04-01T04:11:38;99398.41;;;18.17;62.74
38616;BME280;24370;51.986;4.666;2023-04-01T04:14:04;99396.53;;;17.90;63.47
38616;BME280;24370;51.986;4.666;2023-04-01T04:16:29;99411.00;;;17.55;64.89
38616;BME280;24370;51.986;4.666;2023-04-01T04:18:54;99418.22;;;16.16;72.84
38616;BME280;24370;51.986;4.666;2023-04-01T04:21:20;99419.50;;;16.71;71.80
38616;BME280;24370;51.986;4.666;2023-04-01T04:23:45;99424.66;;;16.26;73.03
38616;BME280;24370;51.986;4.666;2023-04-01T04:26:13;99427.63;;;15.88;72.38
38616;BME280;24370;51.986;4.666;2023-04-01T04:28:38;99424.59;;;17.49;67.53
38616;BME280;24370;51.986;4.666;2023-04-01T04:31:04;99440.00;;;16.82;69.87
38616;BME280;24370;51.986;4.666;2023-04-01T04:33:31;99443.22;;;16.40;71.10
38616;BME280;24370;51.986;4.666;2023-04-01T04:35:58;99449.69;;;17.11;71.10
38616;BME280;24370;51.986;4.666;2023-04-01T04:38:24;99451.94;;;16.25;69.57
38616;BME280;24370;51.986;4.666;2023-04-01T04:40:50;99456.88;;;16.15;71.62
38616;BME280;24370;51.986;4.666;2023-04-01T04:43:16;99456.81;;;16.49;68.98
38616;BME280;24370;51.986;4.666;2023-04-01T04:45:42;99455.63;;;17.45;67.71
38616;BME280;24370;51.986;4.666;2023-04-01T04:48:09;99458.06;;;17.49;65.56
38616;BME280;24370;51.986;4.666;2023-04-01T04:50:34;99467.84;;;15.40;73.46
38616;BME280;24370;51.986;4.666;2023-04-01T04:53:00;99472.50;;;16.66;70.58
38616;BME280;24370;51.986;4.666;2023-04-01T04:55:26;99472.94;;;17.21;67.12
38616;BME280;24370;51.986;4.666;2023-04-01T04:57:51;99479.63;;;16.80;68.32
38616;BME280;24370;51.986;4.666;2023-04-01T05:00:17;99473.91;;;17.49;64.87
38616;BME280;24370;51.986;4.666;2023-04-01T05:02:42;99482.03;;;16.85;68.48
38616;BME280;24370;51.986;4.666;2023-04-01T05:05:08;99490.75;;;16.55;71.18
38616;BME280;24370;51.986;4.666;2023-04-01T05:07:34;99489.97;;;16.37;70.09
38616;BME280;24370;51.986;4.666;2023-04-01T05:09:59;99501.53;;;16.34;71.06
38616;BME280;24370;51.986;4.666;2023-04-01T05:12:25;99501.78;;;16.77;70.08
38616;BME280;24370;51.986;4.666;2023-04-01T05:14:50;99507.13;;;16.76;69.06
38616;BME280;24370;51.986;4.666;2023-04-01T05:17:16;99517.97;;;16.39;69.88
38616;BME280;24370;51.986;4.666;2023-04-01T05:19:41;99515.34;;;16.39;67.60
38616;BME280;24370;51.986;4.666;2023-04-01T05:22:07;99519.72;;;17.33;66.07
38616;BME280;24370;51.986;4.666;2023-04-01T05:24:33;99523.00;;;17.67;65.44
38616;BME280;24370;51.986;4.666;2023-04-01T05:26:59;99540.41;;;16.31;71.85
38616;BME280;24370;51.986;4.666;2023-04-01T05:29:25;99530.88;;;16.12;70.09
38616;BME280;24370;51.986;4.666;2023-04-01T05:31:50;99538.56;;;16.81;65.91
38616;BME280;24370;51.986;4.666;2023-04-01T05:34:16;99539.75;;;16.27;69.74
38616;BME280;24370;51.986;4.666;2023-04-01T05:36:42;99552.69;;;16.48;69.11
38616;BME280;24370;51.986;4.666;2023-04-01T05:39:08;99550.31;;;16.59;68.45
38616;BME280;24370;51.986;4.666;2023-04-01T05:41:38;99553.25;;;16.37;69.50
38616;BME280;24370;51.986;4.666;2023-04-01T05:44:05;99559.66;;;17.12;65.03
38616;BME280;24370;51.986;4.666;2023-04-01T05:46:31;99562.06;;;16.69;66.16
38616;BME280;24370;51.986;4.666;2023-04-01T05:48:57;99567.66;;;16.95;65.80
38616;BME280;24370;51.986;4.666;2023-04-01T05:51:22;99568.53;;;16.95;65.33
38616;BME280;24370;51.986;4.666;2023-04-01T05:53:47;99574.47;;;16.99;65.13
38616;BME280;24370;51.986;4.666;2023-04-01T05:56:13;99576.69;;;17.23;63.85
38616;BME280;24370;51.986;4.666;2023-04-01T05:58:38;99584.09;;;17.00;63.92
38616;BME280;24370;51.986;4.666;2023-04-01T06:01:06;99588.44;;;16.69;69.57
38616;BME280;24370;51.986;4.666;2023-04-01T06:03:32;99587.16;;;16.44;69.79
38616;BME280;24370;51.986;4.666;2023-04-01T06:05:58;99591.53;;;16.28;70.53
38616;BME280;24370;51.986;4.666;2023-04-01T06:08:24;99594.97;;;16.13;71.82
38616;BME280;24370;51.986;4.666;2023-04-01T06:15:55;99610.31;;;16.22;69.15
38616;BME280;24370;51.986;4.666;2023-04-01T06:18:59;99619.94;;;16.05;71.32
38616;BME280;24370;51.986;4.666;2023-04-01T06:29:41;99645.19;;;15.57;73.86
38616;BME280;24370;51.986;4.666;2023-04-01T06:38:15;99651.25;;;15.76;72.71
38616;BME280;24370;51.986;4.666;2023-04-01T06:40:50;99660.72;;;15.98;70.77
38616;BME280;24370;51.986;4.666;2023-04-01T06:54:55;99671.22;;;15.63;77.40
38616;BME280;24370;51.986;4.666;2023-04-01T06:57:41;99672.56;;;15.89;75.78
38616;BME280;24370;51.986;4.666;2023-04-01T07:00:22;99672.66;;;14.76;78.43
38616;BME280;24370;51.986;4.666;2023-04-01T07:02:54;99684.28;;;15.10;77.85
38616;BME280;24370;51.986;4.666;2023-04-01T07:05:24;99682.44;;;15.86;73.96
38616;BME280;24370;51.986;4.666;2023-04-01T07:07:57;99681.47;;;16.39;73.31
38616;BME280;24370;51.986;4.666;2023-04-01T07:10:42;99692.66;;;16.27;70.91
38616;BME280;24370;51.986;4.666;2023-04-01T07:13:27;99697.31;;;16.22;69.99
38616;BME280;24370;51.986;4.666;2023-04-01T07:16:08;99704.53;;;15.64;74.52
38616;BME280;24370;51.986;4.666;2023-04-01T07:18:58;99706.63;;;15.94;70.67
38616;BME280;24370;51.986;4.666;2023-04-01T07:21:33;99707.38;;;16.49;71.20
38616;BME280;24370;51.986;4.666;2023-04-01T07:24:16;99711.72;;;15.97;70.20
38616;BME280;24370;51.986;4.666;2023-04-01T07:26:43;99708.94;;;16.35;70.82
38616;BME280;24370;51.986;4.666;2023-04-01T07:29:13;99717.88;;;15.61;74.35
38616;BME280;24370;51.986;4.666;2023-04-01T07:31:59;99719.41;;;15.65;73.27
38616;BME280;24370;51.986;4.666;2023-04-01T07:45:31;99745.66;;;16.56;71.20
38616;BME280;24370;51.986;4.666;2023-04-01T07:48:12;99739.69;;;16.52;71.74
38616;BME280;24370;51.986;4.666;2023-04-01T07:50:48;99737.00;;;16.36;71.43
38616;BME280;24370;51.986;4.666;2023-04-01T08:01:06;99748.00;;;15.36;74.67
38616;BME280;24370;51.986;4.666;2023-04-01T08:06:24;99760.56;;;15.68;73.19
38616;BME280;24370;51.986;4.666;2023-04-01T08:09:11;99764.75;;;16.26;70.96
38616;BME280;24370;51.986;4.666;2023-04-01T08:14:43;99776.34;;;16.74;68.10
38616;BME280;24370;51.986;4.666;2023-04-01T08:17:31;99782.44;;;15.51;73.41
38616;BME280;24370;51.986;4.666;2023-04-01T08:20:23;99789.25;;;15.55;73.97
38616;BME280;24370;51.986;4.666;2023-04-01T08:22:58;99791.31;;;17.25;69.62
38616;BME280;24370;51.986;4.666;2023-04-01T08:25:28;99798.19;;;16.43;69.67
38616;BME280;24370;51.986;4.666;2023-04-01T08:30:35;99800.31;;;16.36;71.07
38616;BME280;24370;51.986;4.666;2023-04-01T08:33:10;99805.75;;;17.02;69.16
38616;BME280;24370;51.986;4.666;2023-04-01T08:35:45;99815.50;;;16.31;69.81
38616;BME280;24370;51.986;4.666;2023-04-01T08:38:17;99815.34;;;16.69;70.73
38616;BME280;24370;51.986;4.666;2023-04-01T08:41:00;99814.84;;;16.78;70.84
38616;BME280;24370;51.986;4.666;2023-04-01T08:46:27;99824.13;;;15.98;73.15
38616;BME280;24370;51.986;4.666;2023-04-01T08:54:43;99831.53;;;17.46;67.96
38616;BME280;24370;51.986;4.666;2023-04-01T09:08:05;99857.66;;;17.19;67.42
38616;BME280;24370;51.986;4.666;2023-04-01T09:11:26;99854.50;;;16.77;70.44
38616;BME280;24370;51.986;4.666;2023-04-01T09:27:28;99874.84;;;16.92;68.69
38616;BME280;24370;51.986;4.666;2023-04-01T09:30:23;99879.34;;;17.08;67.92
38616;BME280;24370;51.986;4.666;2023-04-01T09:38:56;99872.72;;;17.66;62.32
38616;BME280;24370;51.986;4.666;2023-04-01T09:41:45;99883.22;;;17.84;62.21
38616;BME280;24370;51.986;4.666;2023-04-01T09:58:58;99894.63;;;16.84;68.42
38616;BME280;24370;51.986;4.666;2023-04-01T10:12:37;99911.50;;;16.27;72.53
38616;BME280;24370;51.986;4.666;2023-04-01T10:20:40;99918.84;;;16.01;73.23
38616;BME280;24370;51.986;4.666;2023-04-01T10:29:25;99935.00;;;16.13;70.95
38616;BME280;24370;51.986;4.666;2023-04-01T10:32:12;99946.47;;;16.85;70.10
38616;BME280;24370;51.986;4.666;2023-04-01T10:38:27;99939.22;;;17.74;67.63
38616;BME280;24370;51.986;4.666;2023-04-01T11:12:37;99975.16;;;16.56;69.62
38616;BME280;24370;51.986;4.666;2023-04-01T11:18:41;99970.69;;;16.75;72.87
38616;BME280;24370;51.986;4.666;2023-04-01T11:43:39;99991.16;;;16.70;70.34
38616;BME280;24370;51.986;4.666;2023-04-01T11:52:30;100004.44;;;17.23;69.29
38616;BME280;24370;51.986;4.666;2023-04-01T11:57:17;100009.28;;;17.15;69.67
38616;BME280;24370;51.986;4.666;2023-04-01T12:02:28;100022.94;;;17.23;69.27
38616;BME280;24370;51.986;4.666;2023-04-01T12:08:10;100033.38;;;17.59;68.33
38616;BME280;24370;51.986;4.666;2023-04-01T12:11:19;100034.94;;;17.63;66.01
38616;BME280;24370;51.986;4.666;2023-04-01T12:13:48;100034.59;;;18.53;62.14
38616;BME280;24370;51.986;4.666;2023-04-01T12:22:17;100041.66;;;18.04;63.99
38616;BME280;24370;51.986;4.666;2023-04-01T12:24:52;100050.50;;;17.70;65.34
38616;BME280;24370;51.986;4.666;2023-04-01T12:27:34;100053.03;;;17.71;66.13
38616;BME280;24370;51.986;4.666;2023-04-01T12:57:31;100088.63;;;18.48;61.83
38616;BME280;24370;51.986;4.666;2023-04-01T13:05:47;100099.94;;;18.19;64.58
38616;BME280;24370;51.986;4.666;2023-04-01T13:11:30;100094.28;;;18.74;62.04
38616;BME280;24370;51.986;4.666;2023-04-01T13:16:39;100108.44;;;18.41;62.90
38616;BME280;24370;51.986;4.666;2023-04-01T13:19:32;100110.63;;;17.64;67.21
38616;BME280;24370;51.986;4.666;2023-04-01T13:24:50;100119.78;;;18.43;62.54
38616;BME280;24370;51.986;4.666;2023-04-01T13:27:39;100120.50;;;18.63;61.66
38616;BME280;24370;51.986;4.666;2023-04-01T13:32:37;100125.59;;;17.29;66.37
38616;BME280;24370;51.986;4.666;2023-04-01T13:40:34;100137.59;;;18.06;64.24
38616;BME280;24370;51.986;4.666;2023-04-01T13:54:55;100146.13;;;18.78;61.51
38616;BME280;24370;51.986;4.666;2023-04-01T14:00:03;100143.69;;;18.08;62.36
38616;BME280;24370;51.986;4.666;2023-04-01T14:03:11;100143.78;;;18.56;63.19
38616;BME280;24370;51.986;4.666;2023-04-01T14:08:34;100160.63;;;18.22;65.39
38616;BME280;24370;51.986;4.666;2023-04-01T14:11:15;100159.09;;;18.67;62.99
38616;BME280;24370;51.986;4.666;2023-04-01T14:14:15;100162.03;;;18.11;64.68
38616;BME280;24370;51.986;4.666;2023-04-01T14:22:41;100170.28;;;18.05;65.79
38616;BME280;24370;51.986;4.666;2023-04-01T14:33:57;100185.34;;;18.54;63.39
38616;BME280;24370;51.986;4.666;2023-04-01T14:41:59;100190.84;;;18.67;62.21
38616;BME280;24370;51.986;4.666;2023-04-01T14:47:56;100208.28;;;18.87;62.88
38616;BME280;24370;51.986;4.666;2023-04-01T14:50:27;100205.88;;;18.16;64.67
38616;BME280;24370;51.986;4.666;2023-04-01T14:53:08;100206.94;;;19.60;59.05
38616;BME280;24370;51.986;4.666;2023-04-01T14:55:49;100218.00;;;18.71;64.24
38616;BME280;24370;51.986;4.666;2023-04-01T14:58:17;100210.81;;;17.52;69.24
38616;BME280;24370;51.986;4.666;2023-04-01T15:05:49;100233.84;;;17.67;67.38
38616;BME280;24370;51.986;4.666;2023-04-01T15:08:31;100237.75;;;18.47;65.10
38616;BME280;24370;51.986;4.666;2023-04-01T15:11:22;100233.38;;;19.13;61.33
38616;BME280;24370;51.986;4.666;2023-04-01T15:14:08;100250.03;;;18.48;61.60
38616;BME280;24370;51.986;4.666;2023-04-01T15:25:13;100258.22;;;19.11;62.29
38616;BME280;24370;51.986;4.666;2023-04-01T15:28:20;100279.88;;;18.68;63.79
38616;BME280;24370;51.986;4.666;2023-04-01T15:36:36;100291.91;;;17.69;67.53
38616;BME280;24370;51.986;4.666;2023-04-01T15:39:13;100288.88;;;18.30;65.42
38616;BME280;24370;51.986;4.666;2023-04-01T15:52:42;100319.06;;;17.34;69.99
38616;BME280;24370;51.986;4.666;2023-04-01T15:55:17;100314.78;;;18.24;64.04
38616;BME280;24370;51.986;4.666;2023-04-01T16:00:30;100333.75;;;17.97;65.68
38616;BME280;24370;51.986;4.666;2023-04-01T16:06:14;100339.38;;;17.89;66.48
38616;BME280;24370;51.986;4.666;2023-04-01T16:09:02;100344.84;;;17.67;65.75
38616;BME280;24370;51.986;4.666;2023-04-01T16:14:16;100351.94;;;17.84;66.69
38616;BME280;24370;51.986;4.666;2023-04-01T16:16:51;100364.00;;;17.13;69.70
38616;BME280;24370;51.986;4.666;2023-04-01T16:22:08;100374.63;;;18.79;61.98
38616;BME280;24370;51.986;4.666;2023-04-01T16:24:45;100374.41;;;16.34;72.36
38616;BME280;24370;51.986;4.666;2023-04-01T16:27:33;100380.38;;;16.81;71.83
38616;BME280;24370;51.986;4.666;2023-04-01T16:36:20;100400.06;;;17.15;70.79
38616;BME280;24370;51.986;4.666;2023-04-01T16:41:24;100417.59;;;16.95;71.42
38616;BME280;24370;51.986;4.666;2023-04-01T16:43:53;100417.94;;;18.24;65.56
38616;BME280;24370;51.986;4.666;2023-04-01T16:51:48;100430.56;;;15.92;73.84
38616;BME280;24370;51.986;4.666;2023-04-01T16:54:50;100447.81;;;16.01;75.65
38616;BME280;24370;51.986;4.666;2023-04-01T17:00:25;100446.94;;;17.09;69.10
38616;BME280;24370;51.986;4.666;2023-04-01T17:08:35;100467.91;;;16.92;70.80
38616;BME280;24370;51.986;4.666;2023-04-01T17:27:27;100505.09;;;16.63;68.84
38616;BME280;24370;51.986;4.666;2023-04-01T17:30:08;100515.47;;;16.00;69.40
38616;BME280;24370;51.986;4.666;2023-04-01T17:43:45;100543.53;;;16.25;69.55
38616;BME280;24370;51.986;4.666;2023-04-01T18:00:24;100585.63;;;15.27;74.19
38616;BME280;24370;51.986;4.666;2023-04-01T18:08:15;100593.50;;;16.04;70.81
38616;BME280;24370;51.986;4.666;2023-04-01T18:19:14;100623.72;;;16.67;65.82
38616;BME280;24370;51.986;4.666;2023-04-01T18:21:53;100628.38;;;16.60;65.55
38616;BME280;24370;51.986;4.666;2023-04-01T18:24:23;100640.28;;;16.70;67.33
38616;BME280;24370;51.986;4.666;2023-04-01T18:27:15;100647.56;;;16.63;67.70
38616;BME280;24370;51.986;4.666;2023-04-01T18:29:49;100654.78;;;16.36;68.20
38616;BME280;24370;51.986;4.666;2023-04-01T18:32:35;100666.28;;;15.56;69.18
38616;BME280;24370;51.986;4.666;2023-04-01T18:38:04;100671.72;;;16.29;66.76
38616;BME280;24370;51.986;4.666;2023-04-01T18:40:43;100693.06;;;15.16;71.23
38616;BME280;24370;51.986;4.666;2023-04-01T18:43:14;100704.00;;;15.58;71.57
38616;BME280;24370;51.986;4.666;2023-04-01T18:45:58;100706.19;;;15.46;69.87
38616;BME280;24370;51.986;4.666;2023-04-01T18:48:43;100698.13;;;15.50;70.45
38616;BME280;24370;51.986;4.666;2023-04-01T18:51:22;100711.03;;;16.37;64.57
38616;BME280;24370;51.986;4.666;2023-04-01T18:53:58;100720.50;;;17.13;62.91
38616;BME280;24370;51.986;4.666;2023-04-01T18:56:35;100725.25;;;16.07;67.95
38616;BME280;24370;51.986;4.666;2023-04-01T19:08:12;100759.53;;;16.07;67.59
38616;BME280;24370;51.986;4.666;2023-04-01T19:13:00;100766.13;;;15.37;69.36
38616;BME280;24370;51.986;4.666;2023-04-01T19:15:46;100768.63;;;16.24;66.87
38616;BME280;24370;51.986;4.666;2023-04-01T19:21:18;100781.72;;;16.00;67.14
38616;BME280;24370;51.986;4.666;2023-04-01T19:23:53;100788.88;;;15.97;64.22
38616;BME280;24370;51.986;4.666;2023-04-01T19:26:42;100791.47;;;15.98;67.26
38616;BME280;24370;51.986;4.666;2023-04-01T19:38:01;100811.78;;;15.94;66.38
38616;BME280;24370;51.986;4.666;2023-04-01T19:46:03;100823.69;;;14.90;69.40
38616;BME280;24370;51.986;4.666;2023-04-01T20:05:16;100871.44;;;14.05;68.03
38616;BME280;24370;51.986;4.666;2023-04-01T20:07:52;100877.00;;;14.97;64.61
38616;BME280;24370;51.986;4.666;2023-04-01T20:10:29;100895.34;;;15.31;63.38
38616;BME280;24370;51.986;4.666;2023-04-01T20:16:09;100895.88;;;15.42;64.91
38616;BME280;24370;51.986;4.666;2023-04-01T20:18:37;100898.91;;;14.97;64.65
38616;BME280;24370;51.986;4.666;2023-04-01T20:21:17;100902.66;;;14.54;67.09
38616;BME280;24370;51.986;4.666;2023-04-01T20:23:50;100916.69;;;14.89;66.38
38616;BME280;24370;51.986;4.666;2023-04-01T20:26:34;100915.25;;;15.10;63.87
38616;BME280;24370;51.986;4.666;2023-04-01T20:42:38;100938.94;;;16.31;57.45
38616;BME280;24370;51.986;4.666;2023-04-01T20:50:35;100978.19;;;15.82;58.37
38616;BME280;24370;51.986;4.666;2023-04-01T20:58:50;100993.13;;;14.84;61.92
38616;BME280;24370;51.986;4.666;2023-04-01T21:17:52;101020.66;;;15.38;58.56
38616;BME280;24370;51.986;4.666;2023-04-01T21:20:40;101020.16;;;14.91;59.41
38616;BME280;24370;51.986;4.666;2023-04-01T21:34:07;101060.66;;;14.05;62.39
38616;BME280;24370;51.986;4.666;2023-04-01T21:37:41;101058.63;;;15.31;57.84
38616;BME280;24370;51.986;4.666;2023-04-01T21:43:18;101074.31;;;14.62;60.71
38616;BME280;24370;51.986;4.666;2023-04-01T21:53:43;101103.25;;;13.26;65.24
38616;BME280;24370;51.986;4.666;2023-04-01T22:04:22;101118.50;;;14.87;59.83
38616;BME280;24370;51.986;4.666;2023-04-01T22:12:56;101142.94;;;14.07;58.98
38616;BME280;24370;51.986;4.666;2023-04-01T22:20:54;101146.56;;;15.60;54.70
38616;BME280;24370;51.986;4.666;2023-04-01T22:23:35;101162.56;;;14.79;59.22
38616;BME280;24370;51.986;4.666;2023-04-01T22:26:29;101170.38;;;13.93;57.79
38616;BME280;24370;51.986;4.666;2023-04-01T22:31:29;101164.94;;;15.27;55.48
38616;BME280;24370;51.986;4.666;2023-04-01T22:37:05;101173.22;;;13.82;58.06
38616;BME280;24370;51.986;4.666;2023-04-01T22:56:06;101211.00;;;14.23;59.34
38616;BME280;24370;51.986;4.666;2023-04-01T22:58:43;101219.66;;;14.28;58.12
38616;BME280;24370;51.986;4.666;2023-04-01T23:01:16;101223.13;;;13.24;61.57
38616;BME280;24370;51.986;4.666;2023-04-01T23:03:46;101229.34;;;13.78;59.65
38616;BME280;24370;51.986;4.666;2023-04-01T23:06:24;101230.63;;;14.03;58.24
38616;BME280;24370;51.986;4.666;2023-04-01T23:09:23;101235.44;;;14.28;58.42
38616;BME280;24370;51.986;4.666;2023-04-01T23:12:11;101242.44;;;14.29;57.33
38616;BME280;24370;51.986;4.666;2023-04-01T23:14:50;101248.66;;;13.73;59.37
38616;BME280;24370;51.986;4.666;2023-04-01T23:17:31;101250.25;;;14.32;58.34
38616;BME280;24370;51.986;4.666;2023-04-01T23:20:46;101253.63;;;13.92;58.20
38616;BME280;24370;51.986;4.666;2023-04-01T23:28:54;101259.81;;;13.88;56.59